メインページ
METAR-TAF:

METAR-TAF

空港 :

ラバト, モロッコ

ラバト=サレ空港

緯度: 34-03N, 経度: 006-46W, 海抜: 84m

現時点の気象観測

当レポートは38分前の15:00(UTC)に作成
の風 16kt、北/北西から北/北東の間で変化する
気温 27°C
湿度 48%
気圧 1012 hPa
視程: 6000m

METAR: GMME 251500Z 36016KT 330V030 6000 NSC 27/15 Q1012 NOSIG

時間: 15:38 (15:38 UTC)


TAF: 見つかりません

4,000以上の空港の気象観測と天気予報(METAR報とTAF報)

利用可能な観測所は地図上に黄色い丸と赤い丸で示す。

丸の上にカーソルを重ねると観測所名を参照できる。

次にクリックすると気象観測と天気予報を参照できる。

マップの切り替え:黒色「×」印の緑ボタンをクリックして拡大、「-」印の緑ボタンをクリックして縮小、緑色の三角印をクリックして隣りの地図に切り替え


METAR-TAF: